sensor_id;sensor_type;location;lat;lon;timestamp;P1;durP1;ratioP1;P2;durP2;ratioP2
2009;SDS011;1008;47.404;8.502;2024-01-11T00:01:15;44.90;;;15.70;;
2009;SDS011;1008;47.404;8.502;2024-01-11T00:03:42;59.33;;;17.20;;
2009;SDS011;1008;47.404;8.502;2024-01-11T00:06:08;37.57;;;14.60;;
2009;SDS011;1008;47.404;8.502;2024-01-11T00:08:35;43.20;;;13.30;;
2009;SDS011;1008;47.404;8.502;2024-01-11T00:11:02;48.07;;;15.53;;
2009;SDS011;1008;47.404;8.502;2024-01-11T00:13:28;49.97;;;15.90;;
2009;SDS011;1008;47.404;8.502;2024-01-11T00:15:55;57.43;;;15.53;;
2009;SDS011;1008;47.404;8.502;2024-01-11T00:18:23;47.93;;;14.77;;
2009;SDS011;1008;47.404;8.502;2024-01-11T00:20:50;55.77;;;15.73;;
2009;SDS011;1008;47.404;8.502;2024-01-11T00:23:17;54.00;;;17.70;;
2009;SDS011;1008;47.404;8.502;2024-01-11T00:25:43;46.07;;;15.30;;
2009;SDS011;1008;47.404;8.502;2024-01-11T00:28:10;52.87;;;15.30;;
2009;SDS011;1008;47.404;8.502;2024-01-11T00:30:37;46.33;;;14.30;;
2009;SDS011;1008;47.404;8.502;2024-01-11T00:33:03;41.70;;;14.63;;
2009;SDS011;1008;47.404;8.502;2024-01-11T00:35:33;46.17;;;16.00;;
2009;SDS011;1008;47.404;8.502;2024-01-11T00:37:59;47.90;;;14.67;;
2009;SDS011;1008;47.404;8.502;2024-01-11T00:40:26;48.23;;;14.80;;
2009;SDS011;1008;47.404;8.502;2024-01-11T00:42:53;47.87;;;15.33;;
2009;SDS011;1008;47.404;8.502;2024-01-11T00:45:19;47.97;;;15.03;;
2009;SDS011;1008;47.404;8.502;2024-01-11T00:47:46;43.63;;;14.87;;
2009;SDS011;1008;47.404;8.502;2024-01-11T00:50:13;51.33;;;16.20;;
2009;SDS011;1008;47.404;8.502;2024-01-11T00:52:41;55.47;;;15.50;;
2009;SDS011;1008;47.404;8.502;2024-01-11T00:55:08;52.83;;;15.83;;
2009;SDS011;1008;47.404;8.502;2024-01-11T00:57:34;46.60;;;13.87;;
2009;SDS011;1008;47.404;8.502;2024-01-11T01:00:01;47.77;;;15.37;;
2009;SDS011;1008;47.404;8.502;2024-01-11T01:02:28;56.87;;;14.67;;
2009;SDS011;1008;47.404;8.502;2024-01-11T01:04:55;52.10;;;15.50;;
2009;SDS011;1008;47.404;8.502;2024-01-11T01:07:21;46.60;;;17.60;;
2009;SDS011;1008;47.404;8.502;2024-01-11T01:09:49;53.53;;;15.20;;
2009;SDS011;1008;47.404;8.502;2024-01-11T01:12:16;47.00;;;16.03;;
2009;SDS011;1008;47.404;8.502;2024-01-11T01:14:43;55.50;;;17.23;;
2009;SDS011;1008;47.404;8.502;2024-01-11T01:17:10;48.07;;;16.50;;
2009;SDS011;1008;47.404;8.502;2024-01-11T01:19:36;50.40;;;16.87;;
2009;SDS011;1008;47.404;8.502;2024-01-11T01:22:03;51.10;;;17.40;;
2009;SDS011;1008;47.404;8.502;2024-01-11T01:24:30;50.40;;;16.70;;
2009;SDS011;1008;47.404;8.502;2024-01-11T01:26:58;53.40;;;17.13;;
2009;SDS011;1008;47.404;8.502;2024-01-11T01:29:25;50.27;;;17.30;;
2009;SDS011;1008;47.404;8.502;2024-01-11T01:31:52;59.50;;;18.30;;
2009;SDS011;1008;47.404;8.502;2024-01-11T01:34:19;51.77;;;17.43;;
2009;SDS011;1008;47.404;8.502;2024-01-11T01:36:46;55.70;;;18.33;;
2009;SDS011;1008;47.404;8.502;2024-01-11T01:39:12;48.17;;;14.67;;
2009;SDS011;1008;47.404;8.502;2024-01-11T01:41:39;55.57;;;17.80;;
2009;SDS011;1008;47.404;8.502;2024-01-11T01:44:07;47.80;;;15.47;;
2009;SDS011;1008;47.404;8.502;2024-01-11T01:46:34;52.30;;;16.00;;
2009;SDS011;1008;47.404;8.502;2024-01-11T01:49:01;44.10;;;15.80;;
2009;SDS011;1008;47.404;8.502;2024-01-11T01:51:29;49.70;;;16.97;;
2009;SDS011;1008;47.404;8.502;2024-01-11T01:53:57;48.33;;;16.60;;
2009;SDS011;1008;47.404;8.502;2024-01-11T01:56:24;61.10;;;18.93;;
2009;SDS011;1008;47.404;8.502;2024-01-11T01:58:52;50.83;;;16.60;;
2009;SDS011;1008;47.404;8.502;2024-01-11T02:01:21;50.13;;;17.83;;
2009;SDS011;1008;47.404;8.502;2024-01-11T02:03:50;55.43;;;17.27;;
2009;SDS011;1008;47.404;8.502;2024-01-11T02:06:17;51.00;;;18.30;;
2009;SDS011;1008;47.404;8.502;2024-01-11T02:08:47;57.03;;;16.87;;
2009;SDS011;1008;47.404;8.502;2024-01-11T02:11:17;54.87;;;17.73;;
2009;SDS011;1008;47.404;8.502;2024-01-11T02:13:45;51.67;;;17.47;;
2009;SDS011;1008;47.404;8.502;2024-01-11T02:16:12;63.10;;;18.87;;
2009;SDS011;1008;47.404;8.502;2024-01-11T02:18:41;40.73;;;15.90;;
2009;SDS011;1008;47.404;8.502;2024-01-11T02:21:09;62.57;;;19.30;;
2009;SDS011;1008;47.404;8.502;2024-01-11T02:23:40;50.53;;;18.70;;
2009;SDS011;1008;47.404;8.502;2024-01-11T02:26:13;52.97;;;16.03;;
2009;SDS011;1008;47.404;8.502;2024-01-11T02:28:42;45.23;;;15.43;;
2009;SDS011;1008;47.404;8.502;2024-01-11T02:31:10;49.33;;;17.30;;
2009;SDS011;1008;47.404;8.502;2024-01-11T02:33:37;44.63;;;15.40;;
2009;SDS011;1008;47.404;8.502;2024-01-11T02:36:05;40.63;;;16.40;;
2009;SDS011;1008;47.404;8.502;2024-01-11T02:38:32;47.27;;;14.77;;
2009;SDS011;1008;47.404;8.502;2024-01-11T02:41:00;45.10;;;15.60;;
2009;SDS011;1008;47.404;8.502;2024-01-11T02:43:28;46.13;;;15.40;;
2009;SDS011;1008;47.404;8.502;2024-01-11T02:45:55;50.83;;;16.70;;
2009;SDS011;1008;47.404;8.502;2024-01-11T02:48:26;49.60;;;15.50;;
2009;SDS011;1008;47.404;8.502;2024-01-11T02:50:54;50.00;;;16.27;;
2009;SDS011;1008;47.404;8.502;2024-01-11T02:53:21;39.70;;;14.10;;
2009;SDS011;1008;47.404;8.502;2024-01-11T02:55:48;54.50;;;15.60;;
2009;SDS011;1008;47.404;8.502;2024-01-11T02:58:15;41.90;;;14.60;;
2009;SDS011;1008;47.404;8.502;2024-01-11T03:00:43;39.70;;;14.50;;
2009;SDS011;1008;47.404;8.502;2024-01-11T03:03:10;54.43;;;18.17;;
2009;SDS011;1008;47.404;8.502;2024-01-11T03:05:37;39.50;;;14.40;;
2009;SDS011;1008;47.404;8.502;2024-01-11T03:08:04;42.63;;;16.73;;
2009;SDS011;1008;47.404;8.502;2024-01-11T03:10:31;41.53;;;14.43;;
2009;SDS011;1008;47.404;8.502;2024-01-11T03:12:58;42.57;;;14.77;;
2009;SDS011;1008;47.404;8.502;2024-01-11T03:15:24;41.33;;;14.80;;
2009;SDS011;1008;47.404;8.502;2024-01-11T03:17:52;36.60;;;14.10;;
2009;SDS011;1008;47.404;8.502;2024-01-11T03:20:19;45.67;;;14.43;;
2009;SDS011;1008;47.404;8.502;2024-01-11T03:22:49;46.97;;;14.50;;
2009;SDS011;1008;47.404;8.502;2024-01-11T03:25:16;43.37;;;14.67;;
2009;SDS011;1008;47.404;8.502;2024-01-11T03:27:43;39.97;;;15.20;;
2009;SDS011;1008;47.404;8.502;2024-01-11T03:30:10;46.07;;;14.33;;
2009;SDS011;1008;47.404;8.502;2024-01-11T03:32:37;50.47;;;14.47;;
2009;SDS011;1008;47.404;8.502;2024-01-11T03:35:06;48.87;;;15.57;;
2009;SDS011;1008;47.404;8.502;2024-01-11T03:37:33;40.70;;;13.20;;
2009;SDS011;1008;47.404;8.502;2024-01-11T03:40:00;39.87;;;13.60;;
2009;SDS011;1008;47.404;8.502;2024-01-11T03:42:26;38.97;;;15.70;;
2009;SDS011;1008;47.404;8.502;2024-01-11T03:44:53;37.53;;;13.63;;
2009;SDS011;1008;47.404;8.502;2024-01-11T03:47:20;36.90;;;13.93;;
2009;SDS011;1008;47.404;8.502;2024-01-11T03:49:47;35.17;;;12.90;;
2009;SDS011;1008;47.404;8.502;2024-01-11T03:52:15;33.50;;;14.40;;
2009;SDS011;1008;47.404;8.502;2024-01-11T03:54:41;37.83;;;13.63;;
2009;SDS011;1008;47.404;8.502;2024-01-11T03:57:08;40.37;;;14.00;;
2009;SDS011;1008;47.404;8.502;2024-01-11T03:59:35;39.80;;;13.83;;
2009;SDS011;1008;47.404;8.502;2024-01-11T04:02:02;40.40;;;15.70;;
2009;SDS011;1008;47.404;8.502;2024-01-11T04:04:28;32.40;;;12.80;;
2009;SDS011;1008;47.404;8.502;2024-01-11T04:06:55;40.40;;;14.47;;
2009;SDS011;1008;47.404;8.502;2024-01-11T04:09:23;33.10;;;12.73;;
2009;SDS011;1008;47.404;8.502;2024-01-11T04:11:50;33.23;;;12.63;;
2009;SDS011;1008;47.404;8.502;2024-01-11T04:14:17;34.83;;;12.90;;
2009;SDS011;1008;47.404;8.502;2024-01-11T04:16:43;29.73;;;12.13;;
2009;SDS011;1008;47.404;8.502;2024-01-11T04:19:10;38.77;;;13.87;;
2009;SDS011;1008;47.404;8.502;2024-01-11T04:21:37;42.10;;;13.50;;
2009;SDS011;1008;47.404;8.502;2024-01-11T04:24:05;42.27;;;13.87;;
2009;SDS011;1008;47.404;8.502;2024-01-11T04:26:33;38.97;;;13.77;;
2009;SDS011;1008;47.404;8.502;2024-01-11T04:29:00;41.10;;;14.20;;
2009;SDS011;1008;47.404;8.502;2024-01-11T04:31:27;42.40;;;14.13;;
2009;SDS011;1008;47.404;8.502;2024-01-11T04:33:53;36.23;;;12.50;;
2009;SDS011;1008;47.404;8.502;2024-01-11T04:36:20;43.70;;;14.57;;
2009;SDS011;1008;47.404;8.502;2024-01-11T04:38:47;33.43;;;13.10;;
2009;SDS011;1008;47.404;8.502;2024-01-11T04:41:14;43.00;;;13.30;;
2009;SDS011;1008;47.404;8.502;2024-01-11T04:43:43;35.30;;;13.40;;
2009;SDS011;1008;47.404;8.502;2024-01-11T04:46:14;51.67;;;16.17;;
2009;SDS011;1008;47.404;8.502;2024-01-11T04:48:41;43.57;;;14.13;;
2009;SDS011;1008;47.404;8.502;2024-01-11T04:51:08;34.73;;;14.10;;
2009;SDS011;1008;47.404;8.502;2024-01-11T04:53:36;47.93;;;15.33;;
2009;SDS011;1008;47.404;8.502;2024-01-11T04:56:04;31.33;;;12.90;;
2009;SDS011;1008;47.404;8.502;2024-01-11T04:58:31;32.87;;;12.30;;
2009;SDS011;1008;47.404;8.502;2024-01-11T05:00:59;46.43;;;14.90;;
2009;SDS011;1008;47.404;8.502;2024-01-11T05:03:26;32.13;;;12.23;;
2009;SDS011;1008;47.404;8.502;2024-01-11T05:05:53;35.67;;;13.87;;
2009;SDS011;1008;47.404;8.502;2024-01-11T05:08:20;43.80;;;14.10;;
2009;SDS011;1008;47.404;8.502;2024-01-11T05:10:47;37.90;;;12.17;;
2009;SDS011;1008;47.404;8.502;2024-01-11T05:13:14;31.40;;;11.90;;
2009;SDS011;1008;47.404;8.502;2024-01-11T05:15:40;43.17;;;13.93;;
2009;SDS011;1008;47.404;8.502;2024-01-11T05:18:08;34.73;;;13.37;;
2009;SDS011;1008;47.404;8.502;2024-01-11T05:20:35;36.60;;;12.70;;
2009;SDS011;1008;47.404;8.502;2024-01-11T05:23:02;41.70;;;14.53;;
2009;SDS011;1008;47.404;8.502;2024-01-11T05:25:29;36.77;;;14.00;;
2009;SDS011;1008;47.404;8.502;2024-01-11T05:27:58;33.00;;;12.60;;
2009;SDS011;1008;47.404;8.502;2024-01-11T05:30:25;33.50;;;12.80;;
2009;SDS011;1008;47.404;8.502;2024-01-11T05:32:52;35.80;;;12.87;;
2009;SDS011;1008;47.404;8.502;2024-01-11T05:35:20;39.73;;;13.83;;
2009;SDS011;1008;47.404;8.502;2024-01-11T05:37:47;34.97;;;13.30;;
2009;SDS011;1008;47.404;8.502;2024-01-11T05:40:14;31.37;;;12.97;;
2009;SDS011;1008;47.404;8.502;2024-01-11T05:42:40;43.97;;;13.30;;
2009;SDS011;1008;47.404;8.502;2024-01-11T05:45:07;31.67;;;13.10;;
2009;SDS011;1008;47.404;8.502;2024-01-11T05:47:35;34.57;;;12.90;;
2009;SDS011;1008;47.404;8.502;2024-01-11T05:50:02;38.80;;;12.27;;
2009;SDS011;1008;47.404;8.502;2024-01-11T05:52:30;35.77;;;14.10;;
2009;SDS011;1008;47.404;8.502;2024-01-11T05:54:57;30.23;;;12.00;;
2009;SDS011;1008;47.404;8.502;2024-01-11T05:57:23;42.97;;;13.13;;
2009;SDS011;1008;47.404;8.502;2024-01-11T05:59:50;35.67;;;13.67;;
2009;SDS011;1008;47.404;8.502;2024-01-11T06:02:17;37.37;;;11.80;;
2009;SDS011;1008;47.404;8.502;2024-01-11T06:04:45;29.90;;;12.20;;
2009;SDS011;1008;47.404;8.502;2024-01-11T06:07:12;31.83;;;11.27;;
2009;SDS011;1008;47.404;8.502;2024-01-11T06:09:41;33.83;;;12.40;;
2009;SDS011;1008;47.404;8.502;2024-01-11T06:12:08;30.50;;;12.57;;
2009;SDS011;1008;47.404;8.502;2024-01-11T06:14:35;35.63;;;13.63;;
2009;SDS011;1008;47.404;8.502;2024-01-11T06:17:02;45.40;;;14.63;;
2009;SDS011;1008;47.404;8.502;2024-01-11T06:19:28;38.73;;;14.53;;
2009;SDS011;1008;47.404;8.502;2024-01-11T06:21:55;32.20;;;12.90;;
2009;SDS011;1008;47.404;8.502;2024-01-11T06:24:22;38.37;;;14.27;;
2009;SDS011;1008;47.404;8.502;2024-01-11T06:26:50;32.30;;;12.93;;
2009;SDS011;1008;47.404;8.502;2024-01-11T06:29:16;32.60;;;12.60;;
2009;SDS011;1008;47.404;8.502;2024-01-11T06:31:43;31.23;;;14.67;;
2009;SDS011;1008;47.404;8.502;2024-01-11T06:34:10;45.53;;;14.20;;
2009;SDS011;1008;47.404;8.502;2024-01-11T06:36:37;39.13;;;14.67;;
2009;SDS011;1008;47.404;8.502;2024-01-11T06:39:03;34.67;;;13.07;;
2009;SDS011;1008;47.404;8.502;2024-01-11T06:41:30;44.70;;;14.30;;
2009;SDS011;1008;47.404;8.502;2024-01-11T06:43:58;37.03;;;13.27;;
2009;SDS011;1008;47.404;8.502;2024-01-11T06:46:25;34.97;;;12.77;;
2009;SDS011;1008;47.404;8.502;2024-01-11T06:48:52;34.83;;;12.80;;
2009;SDS011;1008;47.404;8.502;2024-01-11T06:51:20;37.13;;;14.10;;
2009;SDS011;1008;47.404;8.502;2024-01-11T06:53:47;39.47;;;13.43;;
2009;SDS011;1008;47.404;8.502;2024-01-11T06:56:15;39.27;;;14.73;;
2009;SDS011;1008;47.404;8.502;2024-01-11T06:58:42;33.43;;;12.70;;
2009;SDS011;1008;47.404;8.502;2024-01-11T07:01:10;37.10;;;12.60;;
2009;SDS011;1008;47.404;8.502;2024-01-11T07:03:37;30.63;;;12.60;;
2009;SDS011;1008;47.404;8.502;2024-01-11T07:06:04;32.47;;;12.20;;
2009;SDS011;1008;47.404;8.502;2024-01-11T07:08:32;33.63;;;12.73;;
2009;SDS011;1008;47.404;8.502;2024-01-11T07:10:59;41.17;;;12.10;;
2009;SDS011;1008;47.404;8.502;2024-01-11T07:13:27;40.83;;;12.87;;
2009;SDS011;1008;47.404;8.502;2024-01-11T07:15:54;34.40;;;11.67;;
2009;SDS011;1008;47.404;8.502;2024-01-11T07:18:24;37.37;;;13.60;;
2009;SDS011;1008;47.404;8.502;2024-01-11T07:20:51;33.90;;;11.77;;
2009;SDS011;1008;47.404;8.502;2024-01-11T07:23:19;34.03;;;12.57;;
2009;SDS011;1008;47.404;8.502;2024-01-11T07:25:45;40.97;;;13.37;;
2009;SDS011;1008;47.404;8.502;2024-01-11T07:28:12;41.60;;;14.00;;
2009;SDS011;1008;47.404;8.502;2024-01-11T07:30:39;38.37;;;13.80;;
2009;SDS011;1008;47.404;8.502;2024-01-11T07:33:06;30.20;;;11.80;;
2009;SDS011;1008;47.404;8.502;2024-01-11T07:35:34;34.93;;;12.40;;
2009;SDS011;1008;47.404;8.502;2024-01-11T07:38:00;36.90;;;13.50;;
2009;SDS011;1008;47.404;8.502;2024-01-11T07:40:27;36.80;;;13.40;;
2009;SDS011;1008;47.404;8.502;2024-01-11T07:42:54;39.83;;;14.17;;
2009;SDS011;1008;47.404;8.502;2024-01-11T07:45:20;34.30;;;12.43;;
2009;SDS011;1008;47.404;8.502;2024-01-11T07:47:47;31.93;;;12.07;;
2009;SDS011;1008;47.404;8.502;2024-01-11T07:50:14;32.67;;;12.57;;
2009;SDS011;1008;47.404;8.502;2024-01-11T07:52:42;44.43;;;13.07;;
2009;SDS011;1008;47.404;8.502;2024-01-11T07:55:10;43.03;;;14.60;;
2009;SDS011;1008;47.404;8.502;2024-01-11T07:57:37;49.13;;;13.83;;
2009;SDS011;1008;47.404;8.502;2024-01-11T08:00:05;36.80;;;14.77;;
2009;SDS011;1008;47.404;8.502;2024-01-11T08:02:33;39.53;;;15.57;;
2009;SDS011;1008;47.404;8.502;2024-01-11T08:04:59;37.60;;;12.57;;
2009;SDS011;1008;47.404;8.502;2024-01-11T08:07:26;39.17;;;13.60;;
2009;SDS011;1008;47.404;8.502;2024-01-11T08:09:55;43.87;;;14.10;;
2009;SDS011;1008;47.404;8.502;2024-01-11T08:12:22;38.87;;;16.03;;
2009;SDS011;1008;47.404;8.502;2024-01-11T08:14:48;35.73;;;14.47;;
2009;SDS011;1008;47.404;8.502;2024-01-11T08:17:15;35.07;;;12.83;;
2009;SDS011;1008;47.404;8.502;2024-01-11T08:19:42;41.93;;;15.90;;
2009;SDS011;1008;47.404;8.502;2024-01-11T08:22:09;40.80;;;14.60;;
2009;SDS011;1008;47.404;8.502;2024-01-11T08:24:36;36.70;;;13.20;;
2009;SDS011;1008;47.404;8.502;2024-01-11T08:27:04;38.87;;;15.30;;
2009;SDS011;1008;47.404;8.502;2024-01-11T08:29:32;36.10;;;14.03;;
2009;SDS011;1008;47.404;8.502;2024-01-11T08:31:59;45.43;;;15.83;;
2009;SDS011;1008;47.404;8.502;2024-01-11T08:34:29;40.33;;;16.43;;
2009;SDS011;1008;47.404;8.502;2024-01-11T08:36:55;50.43;;;16.73;;
2009;SDS011;1008;47.404;8.502;2024-01-11T08:39:23;43.97;;;15.30;;
2009;SDS011;1008;47.404;8.502;2024-01-11T08:41:49;43.47;;;17.27;;
2009;SDS011;1008;47.404;8.502;2024-01-11T08:44:18;38.00;;;16.10;;
2009;SDS011;1008;47.404;8.502;2024-01-11T08:46:45;41.33;;;16.57;;
2009;SDS011;1008;47.404;8.502;2024-01-11T08:49:12;41.13;;;15.10;;
2009;SDS011;1008;47.404;8.502;2024-01-11T08:51:38;45.67;;;15.80;;
2009;SDS011;1008;47.404;8.502;2024-01-11T08:54:05;39.20;;;13.70;;
2009;SDS011;1008;47.404;8.502;2024-01-11T08:56:34;42.17;;;15.00;;
2009;SDS011;1008;47.404;8.502;2024-01-11T08:59:01;52.47;;;17.07;;
2009;SDS011;1008;47.404;8.502;2024-01-11T09:01:29;48.97;;;14.47;;
2009;SDS011;1008;47.404;8.502;2024-01-11T09:03:57;47.07;;;16.10;;
2009;SDS011;1008;47.404;8.502;2024-01-11T09:06:24;40.57;;;15.37;;
2009;SDS011;1008;47.404;8.502;2024-01-11T09:08:50;42.00;;;15.07;;
2009;SDS011;1008;47.404;8.502;2024-01-11T09:11:17;38.70;;;15.57;;
2009;SDS011;1008;47.404;8.502;2024-01-11T09:13:44;39.00;;;16.80;;
2009;SDS011;1008;47.404;8.502;2024-01-11T09:16:13;43.77;;;14.17;;
2009;SDS011;1008;47.404;8.502;2024-01-11T09:18:42;35.10;;;14.40;;
2009;SDS011;1008;47.404;8.502;2024-01-11T09:21:09;43.43;;;15.93;;
2009;SDS011;1008;47.404;8.502;2024-01-11T09:23:37;44.13;;;15.67;;
2009;SDS011;1008;47.404;8.502;2024-01-11T09:26:03;43.27;;;17.00;;
2009;SDS011;1008;47.404;8.502;2024-01-11T09:28:31;46.77;;;17.00;;
2009;SDS011;1008;47.404;8.502;2024-01-11T09:30:57;50.60;;;18.07;;
2009;SDS011;1008;47.404;8.502;2024-01-11T09:33:26;45.57;;;17.27;;
2009;SDS011;1008;47.404;8.502;2024-01-11T09:35:55;53.40;;;18.80;;
2009;SDS011;1008;47.404;8.502;2024-01-11T09:38:22;54.27;;;20.63;;
2009;SDS011;1008;47.404;8.502;2024-01-11T09:40:49;58.47;;;21.50;;
2009;SDS011;1008;47.404;8.502;2024-01-11T09:43:27;48.13;;;18.80;;
2009;SDS011;1008;47.404;8.502;2024-01-11T09:45:54;43.97;;;19.10;;
2009;SDS011;1008;47.404;8.502;2024-01-11T09:48:21;42.93;;;18.13;;
2009;SDS011;1008;47.404;8.502;2024-01-11T09:50:50;54.40;;;19.80;;
2009;SDS011;1008;47.404;8.502;2024-01-11T09:53:19;47.87;;;17.47;;
2009;SDS011;1008;47.404;8.502;2024-01-11T09:55:48;52.03;;;17.97;;
2009;SDS011;1008;47.404;8.502;2024-01-11T09:58:16;49.30;;;18.13;;
2009;SDS011;1008;47.404;8.502;2024-01-11T10:00:44;47.00;;;17.80;;
2009;SDS011;1008;47.404;8.502;2024-01-11T10:03:12;46.20;;;18.60;;
2009;SDS011;1008;47.404;8.502;2024-01-11T10:05:39;43.27;;;16.00;;
2009;SDS011;1008;47.404;8.502;2024-01-11T10:08:07;70.00;;;25.47;;
2009;SDS011;1008;47.404;8.502;2024-01-11T10:10:36;47.37;;;19.87;;
2009;SDS011;1008;47.404;8.502;2024-01-11T10:13:03;46.87;;;19.63;;
2009;SDS011;1008;47.404;8.502;2024-01-11T10:15:31;51.40;;;18.00;;
2009;SDS011;1008;47.404;8.502;2024-01-11T10:17:58;40.80;;;18.70;;
2009;SDS011;1008;47.404;8.502;2024-01-11T10:20:25;47.57;;;17.37;;
2009;SDS011;1008;47.404;8.502;2024-01-11T10:22:55;57.57;;;18.10;;
2009;SDS011;1008;47.404;8.502;2024-01-11T10:25:23;43.40;;;17.40;;
2009;SDS011;1008;47.404;8.502;2024-01-11T10:27:51;49.63;;;16.57;;
2009;SDS011;1008;47.404;8.502;2024-01-11T10:30:18;40.60;;;16.07;;
2009;SDS011;1008;47.404;8.502;2024-01-11T10:32:47;47.37;;;17.73;;
2009;SDS011;1008;47.404;8.502;2024-01-11T10:35:14;42.97;;;17.67;;
2009;SDS011;1008;47.404;8.502;2024-01-11T10:37:43;46.63;;;17.37;;
2009;SDS011;1008;47.404;8.502;2024-01-11T10:40:10;47.63;;;18.17;;
2009;SDS011;1008;47.404;8.502;2024-01-11T10:42:39;34.90;;;16.20;;
2009;SDS011;1008;47.404;8.502;2024-01-11T10:45:11;50.10;;;18.17;;
2009;SDS011;1008;47.404;8.502;2024-01-11T10:47:42;38.03;;;15.73;;
2009;SDS011;1008;47.404;8.502;2024-01-11T10:50:22;41.30;;;18.57;;
2009;SDS011;1008;47.404;8.502;2024-01-11T10:52:53;45.60;;;17.77;;
2009;SDS011;1008;47.404;8.502;2024-01-11T10:55:28;43.80;;;18.50;;
2009;SDS011;1008;47.404;8.502;2024-01-11T10:57:58;46.30;;;17.27;;
2009;SDS011;1008;47.404;8.502;2024-01-11T11:00:27;51.83;;;19.80;;
2009;SDS011;1008;47.404;8.502;2024-01-11T11:02:55;42.00;;;16.90;;
2009;SDS011;1008;47.404;8.502;2024-01-11T11:05:21;44.13;;;18.13;;
2009;SDS011;1008;47.404;8.502;2024-01-11T11:07:49;33.60;;;16.63;;
2009;SDS011;1008;47.404;8.502;2024-01-11T11:10:17;45.80;;;18.07;;
2009;SDS011;1008;47.404;8.502;2024-01-11T11:12:45;49.37;;;20.70;;
2009;SDS011;1008;47.404;8.502;2024-01-11T11:15:12;46.27;;;17.07;;
2009;SDS011;1008;47.404;8.502;2024-01-11T11:17:40;39.23;;;17.80;;
2009;SDS011;1008;47.404;8.502;2024-01-11T11:20:10;41.77;;;17.67;;
2009;SDS011;1008;47.404;8.502;2024-01-11T11:22:39;49.43;;;18.63;;
2009;SDS011;1008;47.404;8.502;2024-01-11T11:25:07;48.87;;;18.43;;
2009;SDS011;1008;47.404;8.502;2024-01-11T11:27:34;47.20;;;20.00;;
2009;SDS011;1008;47.404;8.502;2024-01-11T11:30:02;39.43;;;17.47;;
2009;SDS011;1008;47.404;8.502;2024-01-11T11:32:36;44.40;;;17.10;;
2009;SDS011;1008;47.404;8.502;2024-01-11T11:35:05;48.47;;;20.10;;
2009;SDS011;1008;47.404;8.502;2024-01-11T11:37:33;48.50;;;17.77;;
2009;SDS011;1008;47.404;8.502;2024-01-11T11:40:02;47.93;;;19.13;;
2009;SDS011;1008;47.404;8.502;2024-01-11T11:42:30;52.03;;;18.73;;
2009;SDS011;1008;47.404;8.502;2024-01-11T11:44:57;47.07;;;17.77;;
2009;SDS011;1008;47.404;8.502;2024-01-11T11:47:24;56.57;;;19.50;;
2009;SDS011;1008;47.404;8.502;2024-01-11T11:50:04;49.77;;;19.00;;
2009;SDS011;1008;47.404;8.502;2024-01-11T11:52:32;55.57;;;18.03;;
2009;SDS011;1008;47.404;8.502;2024-01-11T11:55:00;55.60;;;19.63;;
2009;SDS011;1008;47.404;8.502;2024-01-11T11:57:28;55.47;;;19.60;;
2009;SDS011;1008;47.404;8.502;2024-01-11T11:59:55;54.80;;;19.60;;
2009;SDS011;1008;47.404;8.502;2024-01-11T12:02:23;51.77;;;18.27;;
2009;SDS011;1008;47.404;8.502;2024-01-11T12:04:51;48.10;;;18.07;;
2009;SDS011;1008;47.404;8.502;2024-01-11T12:07:19;47.43;;;18.17;;
2009;SDS011;1008;47.404;8.502;2024-01-11T12:09:48;51.23;;;17.53;;
2009;SDS011;1008;47.404;8.502;2024-01-11T12:12:15;43.37;;;19.57;;
2009;SDS011;1008;47.404;8.502;2024-01-11T12:14:42;44.00;;;17.13;;
2009;SDS011;1008;47.404;8.502;2024-01-11T12:17:11;38.13;;;15.70;;
2009;SDS011;1008;47.404;8.502;2024-01-11T12:19:38;48.13;;;16.70;;
2009;SDS011;1008;47.404;8.502;2024-01-11T12:22:04;46.13;;;16.93;;
2009;SDS011;1008;47.404;8.502;2024-01-11T12:24:33;42.73;;;15.63;;
2009;SDS011;1008;47.404;8.502;2024-01-11T12:27:00;43.70;;;16.60;;
2009;SDS011;1008;47.404;8.502;2024-01-11T12:29:28;44.07;;;17.30;;
2009;SDS011;1008;47.404;8.502;2024-01-11T12:31:56;46.87;;;18.23;;
2009;SDS011;1008;47.404;8.502;2024-01-11T12:34:23;40.50;;;15.90;;
2009;SDS011;1008;47.404;8.502;2024-01-11T12:36:51;47.50;;;18.47;;
2009;SDS011;1008;47.404;8.502;2024-01-11T12:39:20;44.83;;;18.30;;
2009;SDS011;1008;47.404;8.502;2024-01-11T12:41:49;40.87;;;17.00;;
2009;SDS011;1008;47.404;8.502;2024-01-11T12:44:17;46.47;;;16.70;;
2009;SDS011;1008;47.404;8.502;2024-01-11T12:46:45;46.50;;;16.40;;
2009;SDS011;1008;47.404;8.502;2024-01-11T12:49:13;44.17;;;17.43;;
2009;SDS011;1008;47.404;8.502;2024-01-11T12:51:40;38.20;;;14.57;;
2009;SDS011;1008;47.404;8.502;2024-01-11T12:54:09;34.07;;;16.47;;
2009;SDS011;1008;47.404;8.502;2024-01-11T12:56:40;44.93;;;16.20;;
2009;SDS011;1008;47.404;8.502;2024-01-11T12:59:09;41.70;;;14.83;;
2009;SDS011;1008;47.404;8.502;2024-01-11T13:01:37;45.00;;;15.83;;
2009;SDS011;1008;47.404;8.502;2024-01-11T13:04:04;38.20;;;14.80;;
2009;SDS011;1008;47.404;8.502;2024-01-11T13:06:33;37.03;;;15.97;;
2009;SDS011;1008;47.404;8.502;2024-01-11T13:09:00;41.83;;;14.60;;
2009;SDS011;1008;47.404;8.502;2024-01-11T13:11:28;44.93;;;16.20;;
2009;SDS011;1008;47.404;8.502;2024-01-11T13:13:55;42.03;;;16.77;;
2009;SDS011;1008;47.404;8.502;2024-01-11T13:16:25;31.93;;;12.63;;
2009;SDS011;1008;47.404;8.502;2024-01-11T13:18:52;33.10;;;14.03;;
2009;SDS011;1008;47.404;8.502;2024-01-11T13:21:19;32.63;;;13.37;;
2009;SDS011;1008;47.404;8.502;2024-01-11T13:23:45;33.37;;;13.10;;
2009;SDS011;1008;47.404;8.502;2024-01-11T13:26:12;36.23;;;13.50;;
2009;SDS011;1008;47.404;8.502;2024-01-11T13:28:39;40.13;;;12.90;;
2009;SDS011;1008;47.404;8.502;2024-01-11T13:31:06;30.90;;;12.57;;
2009;SDS011;1008;47.404;8.502;2024-01-11T13:33:36;30.30;;;12.77;;
2009;SDS011;1008;47.404;8.502;2024-01-11T13:36:03;41.07;;;13.43;;
2009;SDS011;1008;47.404;8.502;2024-01-11T13:38:30;32.90;;;13.10;;
2009;SDS011;1008;47.404;8.502;2024-01-11T13:40:57;37.13;;;12.93;;
2009;SDS011;1008;47.404;8.502;2024-01-11T13:43:24;41.87;;;12.50;;
2009;SDS011;1008;47.404;8.502;2024-01-11T13:45:51;32.77;;;12.87;;
2009;SDS011;1008;47.404;8.502;2024-01-11T13:48:19;27.27;;;12.13;;
2009;SDS011;1008;47.404;8.502;2024-01-11T13:50:47;37.67;;;14.17;;
2009;SDS011;1008;47.404;8.502;2024-01-11T13:53:14;45.63;;;14.13;;
2009;SDS011;1008;47.404;8.502;2024-01-11T13:55:41;31.93;;;12.27;;
2009;SDS011;1008;47.404;8.502;2024-01-11T13:58:08;30.27;;;11.70;;
2009;SDS011;1008;47.404;8.502;2024-01-11T14:00:37;31.23;;;11.80;;
2009;SDS011;1008;47.404;8.502;2024-01-11T14:03:04;42.50;;;15.70;;
2009;SDS011;1008;47.404;8.502;2024-01-11T14:05:31;35.37;;;13.80;;
2009;SDS011;1008;47.404;8.502;2024-01-11T14:07:59;38.40;;;13.07;;
2009;SDS011;1008;47.404;8.502;2024-01-11T14:10:26;35.80;;;13.97;;
2009;SDS011;1008;47.404;8.502;2024-01-11T14:12:53;32.50;;;14.40;;
2009;SDS011;1008;47.404;8.502;2024-01-11T14:15:20;29.60;;;13.37;;
2009;SDS011;1008;47.404;8.502;2024-01-11T14:17:47;32.00;;;12.30;;
2009;SDS011;1008;47.404;8.502;2024-01-11T14:20:14;32.20;;;13.23;;
2009;SDS011;1008;47.404;8.502;2024-01-11T14:22:41;30.53;;;11.23;;
2009;SDS011;1008;47.404;8.502;2024-01-11T14:25:13;35.90;;;12.67;;
2009;SDS011;1008;47.404;8.502;2024-01-11T14:27:41;32.90;;;13.50;;
2009;SDS011;1008;47.404;8.502;2024-01-11T14:30:09;32.43;;;12.90;;
2009;SDS011;1008;47.404;8.502;2024-01-11T14:32:36;34.47;;;11.97;;
2009;SDS011;1008;47.404;8.502;2024-01-11T14:35:04;35.60;;;13.60;;
2009;SDS011;1008;47.404;8.502;2024-01-11T14:37:31;32.40;;;11.20;;
2009;SDS011;1008;47.404;8.502;2024-01-11T14:39:59;36.97;;;14.67;;
2009;SDS011;1008;47.404;8.502;2024-01-11T14:42:27;40.90;;;16.90;;
2009;SDS011;1008;47.404;8.502;2024-01-11T14:44:54;29.80;;;11.97;;
2009;SDS011;1008;47.404;8.502;2024-01-11T14:47:21;32.70;;;12.87;;
2009;SDS011;1008;47.404;8.502;2024-01-11T14:49:48;30.13;;;11.30;;